sensor_id;sensor_type;location;lat;lon;timestamp;pressure;altitude;pressure_sealevel;temperature;humidity
71195;BME280;58908;51.426;7.714;2023-09-08T00:00:19;100015.06;;;15.10;100.00
71195;BME280;58908;51.426;7.714;2023-09-08T00:02:45;100014.66;;;15.16;100.00
71195;BME280;58908;51.426;7.714;2023-09-08T00:05:12;100014.66;;;15.16;100.00
71195;BME280;58908;51.426;7.714;2023-09-08T00:07:38;100012.00;;;15.16;100.00
71195;BME280;58908;51.426;7.714;2023-09-08T00:10:05;100000.00;;;15.10;100.00
71195;BME280;58908;51.426;7.714;2023-09-08T00:12:32;100009.34;;;15.03;100.00
71195;BME280;58908;51.426;7.714;2023-09-08T00:14:59;99997.56;;;15.07;100.00
71195;BME280;58908;51.426;7.714;2023-09-08T00:17:26;99999.19;;;14.97;100.00
71195;BME280;58908;51.426;7.714;2023-09-08T00:19:52;100008.53;;;14.90;100.00
71195;BME280;58908;51.426;7.714;2023-09-08T00:22:19;100001.19;;;14.81;100.00
71195;BME280;58908;51.426;7.714;2023-09-08T00:24:48;100003.75;;;14.83;100.00
71195;BME280;58908;51.426;7.714;2023-09-08T00:27:14;99992.94;;;14.73;100.00
71195;BME280;58908;51.426;7.714;2023-09-08T00:29:40;99998.78;;;14.78;100.00
71195;BME280;58908;51.426;7.714;2023-09-08T00:32:08;100003.34;;;14.76;100.00
71195;BME280;58908;51.426;7.714;2023-09-08T00:34:35;100001.75;;;14.74;100.00
71195;BME280;58908;51.426;7.714;2023-09-08T00:37:04;99998.91;;;14.64;100.00
71195;BME280;58908;51.426;7.714;2023-09-08T00:39:32;99995.50;;;14.62;100.00
71195;BME280;58908;51.426;7.714;2023-09-08T00:42:00;100003.25;;;14.53;100.00
71195;BME280;58908;51.426;7.714;2023-09-08T00:44:26;100001.75;;;14.49;100.00
71195;BME280;58908;51.426;7.714;2023-09-08T00:46:53;99999.84;;;14.39;100.00
71195;BME280;58908;51.426;7.714;2023-09-08T00:49:21;99992.41;;;14.43;100.00
71195;BME280;58908;51.426;7.714;2023-09-08T00:51:47;100002.06;;;14.32;100.00
71195;BME280;58908;51.426;7.714;2023-09-08T00:54:17;99998.97;;;14.26;100.00
71195;BME280;58908;51.426;7.714;2023-09-08T00:56:44;99997.28;;;14.25;100.00
71195;BME280;58908;51.426;7.714;2023-09-08T00:59:10;99997.41;;;14.23;100.00
71195;BME280;58908;51.426;7.714;2023-09-08T01:01:37;99997.19;;;14.26;100.00
71195;BME280;58908;51.426;7.714;2023-09-08T01:04:04;99996.97;;;14.29;100.00
71195;BME280;58908;51.426;7.714;2023-09-08T01:06:31;99988.16;;;14.29;100.00
71195;BME280;58908;51.426;7.714;2023-09-08T01:08:58;99989.44;;;14.23;100.00
71195;BME280;58908;51.426;7.714;2023-09-08T01:11:25;99998.97;;;14.26;100.00
71195;BME280;58908;51.426;7.714;2023-09-08T01:13:52;99994.63;;;14.25;100.00
71195;BME280;58908;51.426;7.714;2023-09-08T01:16:18;99989.63;;;14.20;100.00
71195;BME280;58908;51.426;7.714;2023-09-08T01:18:45;99995.00;;;14.06;100.00
71195;BME280;58908;51.426;7.714;2023-09-08T01:21:17;99987.84;;;14.21;100.00
71195;BME280;58908;51.426;7.714;2023-09-08T01:23:59;99996.06;;;14.16;100.00
71195;BME280;58908;51.426;7.714;2023-09-08T01:26:40;99994.38;;;14.15;100.00
71195;BME280;58908;51.426;7.714;2023-09-08T01:29:07;99997.41;;;14.23;100.00
71195;BME280;58908;51.426;7.714;2023-09-08T01:31:35;99994.94;;;14.20;100.00
71195;BME280;58908;51.426;7.714;2023-09-08T01:34:02;99997.34;;;14.11;100.00
71195;BME280;58908;51.426;7.714;2023-09-08T01:36:31;100003.16;;;14.03;100.00
71195;BME280;58908;51.426;7.714;2023-09-08T01:38:58;100000.59;;;14.02;100.00
71195;BME280;58908;51.426;7.714;2023-09-08T01:41:24;99994.03;;;13.95;100.00
71195;BME280;58908;51.426;7.714;2023-09-08T01:43:52;100000.78;;;13.86;100.00
71195;BME280;58908;51.426;7.714;2023-09-08T01:46:19;99998.69;;;13.91;100.00
71195;BME280;58908;51.426;7.714;2023-09-08T01:48:46;100000.25;;;13.94;100.00
71195;BME280;58908;51.426;7.714;2023-09-08T01:51:12;100005.47;;;13.95;100.00
71195;BME280;58908;51.426;7.714;2023-09-08T01:53:39;99995.28;;;13.89;100.00
71195;BME280;58908;51.426;7.714;2023-09-08T01:56:05;99993.47;;;13.90;100.00
71195;BME280;58908;51.426;7.714;2023-09-08T01:58:36;99997.28;;;13.86;100.00
71195;BME280;58908;51.426;7.714;2023-09-08T02:01:18;99996.56;;;13.96;100.00
71195;BME280;58908;51.426;7.714;2023-09-08T02:03:44;99996.91;;;14.04;100.00
71195;BME280;58908;51.426;7.714;2023-09-08T02:06:11;99991.88;;;13.87;100.00
71195;BME280;58908;51.426;7.714;2023-09-08T02:08:37;99994.28;;;13.78;100.00
71195;BME280;58908;51.426;7.714;2023-09-08T02:11:04;99993.25;;;13.80;100.00
71195;BME280;58908;51.426;7.714;2023-09-08T02:13:30;99988.97;;;13.78;100.00
71195;BME280;58908;51.426;7.714;2023-09-08T02:15:57;99992.72;;;13.88;100.00
71195;BME280;58908;51.426;7.714;2023-09-08T02:18:25;99983.47;;;13.81;100.00
71195;BME280;58908;51.426;7.714;2023-09-08T02:20:51;99984.25;;;13.95;100.00
71195;BME280;58908;51.426;7.714;2023-09-08T02:23:18;99983.59;;;13.92;100.00
71195;BME280;58908;51.426;7.714;2023-09-08T02:25:44;99987.00;;;13.94;100.00
71195;BME280;58908;51.426;7.714;2023-09-08T02:28:11;99981.59;;;13.95;100.00
71195;BME280;58908;51.426;7.714;2023-09-08T02:30:37;99986.25;;;13.92;100.00
71195;BME280;58908;51.426;7.714;2023-09-08T02:33:04;99980.94;;;13.92;100.00
71195;BME280;58908;51.426;7.714;2023-09-08T02:35:35;99978.41;;;13.90;100.00
71195;BME280;58908;51.426;7.714;2023-09-08T02:38:01;99982.41;;;13.83;100.00
71195;BME280;58908;51.426;7.714;2023-09-08T02:40:28;99981.56;;;13.83;100.00
71195;BME280;58908;51.426;7.714;2023-09-08T02:42:56;99982.06;;;13.75;100.00
71195;BME280;58908;51.426;7.714;2023-09-08T02:45:22;99978.16;;;13.68;100.00
71195;BME280;58908;51.426;7.714;2023-09-08T02:47:49;99976.09;;;13.59;100.00
71195;BME280;58908;51.426;7.714;2023-09-08T02:50:15;99982.44;;;13.57;100.00
71195;BME280;58908;51.426;7.714;2023-09-08T02:52:43;99974.91;;;13.51;100.00
71195;BME280;58908;51.426;7.714;2023-09-08T02:55:10;99972.56;;;13.46;100.00
71195;BME280;58908;51.426;7.714;2023-09-08T02:57:36;99974.47;;;13.44;100.00
71195;BME280;58908;51.426;7.714;2023-09-08T03:00:03;99970.84;;;13.45;100.00
71195;BME280;58908;51.426;7.714;2023-09-08T03:02:30;99974.53;;;13.69;100.00
71195;BME280;58908;51.426;7.714;2023-09-08T03:04:56;99975.34;;;13.57;100.00
71195;BME280;58908;51.426;7.714;2023-09-08T03:07:25;99975.28;;;13.45;100.00
71195;BME280;58908;51.426;7.714;2023-09-08T03:09:53;99980.06;;;13.79;100.00
71195;BME280;58908;51.426;7.714;2023-09-08T03:12:20;99978.97;;;13.69;100.00
71195;BME280;58908;51.426;7.714;2023-09-08T03:14:47;99978.72;;;13.86;100.00
71195;BME280;58908;51.426;7.714;2023-09-08T03:17:13;99971.47;;;14.89;100.00
71195;BME280;58908;51.426;7.714;2023-09-08T03:19:40;99968.75;;;15.01;100.00
71195;BME280;58908;51.426;7.714;2023-09-08T03:22:07;99967.06;;;15.13;100.00
71195;BME280;58908;51.426;7.714;2023-09-08T03:24:33;99962.00;;;14.85;100.00
71195;BME280;58908;51.426;7.714;2023-09-08T03:27:01;99967.03;;;14.64;100.00
71195;BME280;58908;51.426;7.714;2023-09-08T03:29:27;99958.22;;;14.39;100.00
71195;BME280;58908;51.426;7.714;2023-09-08T03:31:54;99961.16;;;14.10;100.00
71195;BME280;58908;51.426;7.714;2023-09-08T03:34:20;99961.97;;;13.98;100.00
71195;BME280;58908;51.426;7.714;2023-09-08T03:36:48;99963.66;;;13.86;100.00
71195;BME280;58908;51.426;7.714;2023-09-08T03:39:14;99962.91;;;13.84;100.00
71195;BME280;58908;51.426;7.714;2023-09-08T03:41:41;99965.97;;;13.78;100.00
71195;BME280;58908;51.426;7.714;2023-09-08T03:44:09;99962.03;;;13.71;100.00
71195;BME280;58908;51.426;7.714;2023-09-08T03:46:36;99966.59;;;13.69;100.00
71195;BME280;58908;51.426;7.714;2023-09-08T03:49:02;99963.50;;;13.63;100.00
71195;BME280;58908;51.426;7.714;2023-09-08T03:51:29;99971.09;;;13.55;100.00
71195;BME280;58908;51.426;7.714;2023-09-08T03:53:55;99971.09;;;13.55;100.00
71195;BME280;58908;51.426;7.714;2023-09-08T03:56:22;99975.09;;;13.48;100.00
71195;BME280;58908;51.426;7.714;2023-09-08T03:58:48;99973.69;;;13.42;100.00
71195;BME280;58908;51.426;7.714;2023-09-08T04:01:16;99969.00;;;13.33;100.00
71195;BME280;58908;51.426;7.714;2023-09-08T04:03:43;99975.34;;;13.31;100.00
71195;BME280;58908;51.426;7.714;2023-09-08T04:06:09;99968.94;;;13.21;100.00
71195;BME280;58908;51.426;7.714;2023-09-08T04:08:36;99974.31;;;13.19;100.00
71195;BME280;58908;51.426;7.714;2023-09-08T04:11:03;99978.97;;;13.16;100.00
71195;BME280;58908;51.426;7.714;2023-09-08T04:13:29;99975.31;;;13.04;100.00
71195;BME280;58908;51.426;7.714;2023-09-08T04:15:56;99983.47;;;13.01;100.00
71195;BME280;58908;51.426;7.714;2023-09-08T04:18:24;99988.19;;;12.96;100.00
71195;BME280;58908;51.426;7.714;2023-09-08T04:20:50;99979.94;;;12.87;100.00
71195;BME280;58908;51.426;7.714;2023-09-08T04:23:16;99977.50;;;12.98;100.00
71195;BME280;58908;51.426;7.714;2023-09-08T04:25:43;99977.19;;;12.88;100.00
71195;BME280;58908;51.426;7.714;2023-09-08T04:28:09;99988.84;;;13.00;100.00
71195;BME280;58908;51.426;7.714;2023-09-08T04:30:35;99988.72;;;12.87;100.00
71195;BME280;58908;51.426;7.714;2023-09-08T04:33:02;99984.84;;;12.93;100.00
71195;BME280;58908;51.426;7.714;2023-09-08T04:35:30;99987.59;;;12.91;100.00
71195;BME280;58908;51.426;7.714;2023-09-08T04:37:57;99984.38;;;12.86;100.00
71195;BME280;58908;51.426;7.714;2023-09-08T04:40:23;99984.38;;;13.14;100.00
71195;BME280;58908;51.426;7.714;2023-09-08T04:42:49;99991.88;;;13.08;100.00
71195;BME280;58908;51.426;7.714;2023-09-08T04:45:16;99981.72;;;13.14;100.00
71195;BME280;58908;51.426;7.714;2023-09-08T04:47:42;99984.59;;;13.11;100.00
71195;BME280;58908;51.426;7.714;2023-09-08T04:50:09;99984.00;;;13.06;100.00
71195;BME280;58908;51.426;7.714;2023-09-08T04:52:37;99993.00;;;13.04;100.00
71195;BME280;58908;51.426;7.714;2023-09-08T04:55:03;99999.53;;;12.98;100.00
71195;BME280;58908;51.426;7.714;2023-09-08T04:57:30;99996.25;;;12.95;100.00
71195;BME280;58908;51.426;7.714;2023-09-08T04:59:56;99996.94;;;12.83;100.00
71195;BME280;58908;51.426;7.714;2023-09-08T05:02:23;100001.41;;;12.82;100.00
71195;BME280;58908;51.426;7.714;2023-09-08T05:04:49;100004.34;;;12.78;100.00
71195;BME280;58908;51.426;7.714;2023-09-08T05:07:16;99997.81;;;12.83;100.00
71195;BME280;58908;51.426;7.714;2023-09-08T05:09:45;99996.19;;;12.81;100.00
71195;BME280;58908;51.426;7.714;2023-09-08T05:12:12;99997.16;;;12.80;100.00
71195;BME280;58908;51.426;7.714;2023-09-08T05:14:38;99993.75;;;12.78;100.00
71195;BME280;58908;51.426;7.714;2023-09-08T05:17:04;99994.63;;;12.78;100.00
71195;BME280;58908;51.426;7.714;2023-09-08T05:19:31;99994.91;;;12.74;100.00
71195;BME280;58908;51.426;7.714;2023-09-08T05:21:58;100002.16;;;12.84;100.00
71195;BME280;58908;51.426;7.714;2023-09-08T05:24:24;99997.00;;;12.97;100.00
71195;BME280;58908;51.426;7.714;2023-09-08T05:26:53;99999.88;;;12.92;100.00
71195;BME280;58908;51.426;7.714;2023-09-08T05:29:19;99993.59;;;12.95;100.00
71195;BME280;58908;51.426;7.714;2023-09-08T05:31:46;99999.63;;;12.97;100.00
71195;BME280;58908;51.426;7.714;2023-09-08T05:34:12;99992.53;;;12.97;100.00
71195;BME280;58908;51.426;7.714;2023-09-08T05:36:39;99992.16;;;13.03;100.00
71195;BME280;58908;51.426;7.714;2023-09-08T05:39:07;99993.44;;;13.10;100.00
71195;BME280;58908;51.426;7.714;2023-09-08T05:41:35;99987.31;;;13.10;100.00
71195;BME280;58908;51.426;7.714;2023-09-08T05:44:03;99991.47;;;13.14;100.00
71195;BME280;58908;51.426;7.714;2023-09-08T05:46:29;99989.56;;;13.16;100.00
71195;BME280;58908;51.426;7.714;2023-09-08T05:48:56;99991.28;;;13.17;100.00
71195;BME280;58908;51.426;7.714;2023-09-08T05:51:22;99991.84;;;13.22;100.00
71195;BME280;58908;51.426;7.714;2023-09-08T05:53:49;99993.03;;;13.30;100.00
71195;BME280;58908;51.426;7.714;2023-09-08T05:56:15;99997.00;;;13.37;100.00
71195;BME280;58908;51.426;7.714;2023-09-08T05:58:41;99992.66;;;13.36;100.00
71195;BME280;58908;51.426;7.714;2023-09-08T06:01:09;99990.75;;;13.38;100.00
71195;BME280;58908;51.426;7.714;2023-09-08T06:03:36;99996.41;;;13.46;100.00
71195;BME280;58908;51.426;7.714;2023-09-08T06:06:02;99996.00;;;13.52;100.00
71195;BME280;58908;51.426;7.714;2023-09-08T06:08:30;99993.69;;;13.60;100.00
71195;BME280;58908;51.426;7.714;2023-09-08T06:10:57;99994.22;;;13.65;100.00
71195;BME280;58908;51.426;7.714;2023-09-08T06:13:23;99996.28;;;13.74;100.00
71195;BME280;58908;51.426;7.714;2023-09-08T06:15:50;99998.41;;;13.82;100.00
71195;BME280;58908;51.426;7.714;2023-09-08T06:18:18;99992.53;;;14.30;100.00
71195;BME280;58908;51.426;7.714;2023-09-08T06:20:44;99989.72;;;15.42;100.00
71195;BME280;58908;51.426;7.714;2023-09-08T06:23:11;99981.44;;;17.26;100.00
71195;BME280;58908;51.426;7.714;2023-09-08T06:25:38;99960.13;;;18.41;100.00
71195;BME280;58908;51.426;7.714;2023-09-08T06:28:05;99926.38;;;19.77;100.00
71195;BME280;58908;51.426;7.714;2023-09-08T06:30:31;99891.75;;;21.14;100.00
71195;BME280;58908;51.426;7.714;2023-09-08T06:32:58;99864.88;;;21.76;100.00
71195;BME280;58908;51.426;7.714;2023-09-08T06:35:26;99843.44;;;22.60;100.00
71195;BME280;58908;51.426;7.714;2023-09-08T06:37:53;99839.06;;;23.66;99.38
71195;BME280;58908;51.426;7.714;2023-09-08T06:40:20;99818.53;;;23.73;93.94
71195;BME280;58908;51.426;7.714;2023-09-08T06:42:46;99840.16;;;23.15;96.88
71195;BME280;58908;51.426;7.714;2023-09-08T06:45:12;99850.97;;;22.90;96.77
71195;BME280;58908;51.426;7.714;2023-09-08T06:47:40;99847.56;;;23.13;98.48
71195;BME280;58908;51.426;7.714;2023-09-08T06:50:08;99873.69;;;22.95;100.00
71195;BME280;58908;51.426;7.714;2023-09-08T06:52:36;99853.16;;;24.32;98.04
71195;BME280;58908;51.426;7.714;2023-09-08T06:55:03;99814.09;;;25.80;90.60
71195;BME280;58908;51.426;7.714;2023-09-08T06:57:30;99797.88;;;26.89;84.83
71195;BME280;58908;51.426;7.714;2023-09-08T07:00:04;99800.03;;;26.21;83.53
71195;BME280;58908;51.426;7.714;2023-09-08T07:02:32;99821.50;;;25.41;86.42
71195;BME280;58908;51.426;7.714;2023-09-08T07:04:59;99834.00;;;25.87;86.17
71195;BME280;58908;51.426;7.714;2023-09-08T07:07:26;99835.84;;;25.64;86.00
71195;BME280;58908;51.426;7.714;2023-09-08T07:09:53;99845.13;;;25.92;86.64
71195;BME280;58908;51.426;7.714;2023-09-08T07:12:20;99818.69;;;27.39;82.22
71195;BME280;58908;51.426;7.714;2023-09-08T07:14:48;99822.09;;;27.68;82.46
71195;BME280;58908;51.426;7.714;2023-09-08T07:17:15;99817.59;;;27.96;81.49
71195;BME280;58908;51.426;7.714;2023-09-08T07:19:44;99792.19;;;28.65;77.60
71195;BME280;58908;51.426;7.714;2023-09-08T07:22:10;99831.38;;;27.59;81.27
71195;BME280;58908;51.426;7.714;2023-09-08T07:24:37;99803.47;;;26.15;75.78
71195;BME280;58908;51.426;7.714;2023-09-08T07:27:05;99819.81;;;25.40;77.60
71195;BME280;58908;51.426;7.714;2023-09-08T07:29:32;99825.78;;;24.97;79.23
71195;BME280;58908;51.426;7.714;2023-09-08T07:31:58;99838.97;;;24.54;79.88
71195;BME280;58908;51.426;7.714;2023-09-08T07:34:24;99842.66;;;24.99;79.68
71195;BME280;58908;51.426;7.714;2023-09-08T07:36:51;99846.91;;;24.39;82.88
71195;BME280;58908;51.426;7.714;2023-09-08T07:39:18;99858.16;;;24.67;83.78
71195;BME280;58908;51.426;7.714;2023-09-08T07:41:44;99841.88;;;24.28;81.65
71195;BME280;58908;51.426;7.714;2023-09-08T07:44:12;99855.28;;;24.52;84.16
71195;BME280;58908;51.426;7.714;2023-09-08T07:46:38;99854.19;;;24.85;83.39
71195;BME280;58908;51.426;7.714;2023-09-08T07:49:05;99837.38;;;25.44;79.83
71195;BME280;58908;51.426;7.714;2023-09-08T07:51:31;99846.78;;;25.17;81.32
71195;BME280;58908;51.426;7.714;2023-09-08T07:53:58;99820.94;;;25.90;77.78
71195;BME280;58908;51.426;7.714;2023-09-08T07:56:24;99829.66;;;25.78;77.99
71195;BME280;58908;51.426;7.714;2023-09-08T07:58:51;99826.75;;;25.79;78.03
71195;BME280;58908;51.426;7.714;2023-09-08T08:01:18;99798.28;;;26.57;73.69
71195;BME280;58908;51.426;7.714;2023-09-08T08:03:45;99815.56;;;25.82;74.74
71195;BME280;58908;51.426;7.714;2023-09-08T08:06:12;99795.00;;;26.76;73.13
71195;BME280;58908;51.426;7.714;2023-09-08T08:08:38;99787.06;;;26.75;71.77
71195;BME280;58908;51.426;7.714;2023-09-08T08:11:08;99799.47;;;26.40;73.38
71195;BME280;58908;51.426;7.714;2023-09-08T08:13:41;99814.50;;;26.28;75.58
71195;BME280;58908;51.426;7.714;2023-09-08T08:16:07;99796.28;;;27.72;73.16
71195;BME280;58908;51.426;7.714;2023-09-08T08:18:35;99758.81;;;28.37;69.33
71195;BME280;58908;51.426;7.714;2023-09-08T08:21:01;99754.59;;;28.62;67.83
71195;BME280;58908;51.426;7.714;2023-09-08T08:23:28;99749.41;;;29.40;66.22
71195;BME280;58908;51.426;7.714;2023-09-08T08:25:55;99755.31;;;28.90;66.17
71195;BME280;58908;51.426;7.714;2023-09-08T08:28:23;99765.56;;;28.47;67.60
71195;BME280;58908;51.426;7.714;2023-09-08T08:30:49;99802.59;;;27.58;70.82
71195;BME280;58908;51.426;7.714;2023-09-08T08:33:16;99786.16;;;28.08;68.68
71195;BME280;58908;51.426;7.714;2023-09-08T08:35:49;99766.13;;;28.77;68.03
71195;BME280;58908;51.426;7.714;2023-09-08T08:38:16;99758.31;;;29.01;66.50
71195;BME280;58908;51.426;7.714;2023-09-08T08:40:42;99766.63;;;28.93;66.30
71195;BME280;58908;51.426;7.714;2023-09-08T08:43:08;99772.94;;;27.98;66.24
71195;BME280;58908;51.426;7.714;2023-09-08T08:45:35;99769.09;;;28.14;66.44
71195;BME280;58908;51.426;7.714;2023-09-08T08:48:03;99768.31;;;29.01;66.90
71195;BME280;58908;51.426;7.714;2023-09-08T08:50:30;99752.88;;;29.01;65.34
71195;BME280;58908;51.426;7.714;2023-09-08T08:52:59;99758.75;;;28.64;65.10
71195;BME280;58908;51.426;7.714;2023-09-08T08:55:27;99758.78;;;29.31;64.09
71195;BME280;58908;51.426;7.714;2023-09-08T08:57:55;99760.69;;;28.02;64.01
71195;BME280;58908;51.426;7.714;2023-09-08T09:00:27;99756.34;;;28.89;64.15
71195;BME280;58908;51.426;7.714;2023-09-08T09:03:02;99752.78;;;29.55;64.88
71195;BME280;58908;51.426;7.714;2023-09-08T09:05:39;99750.00;;;29.22;63.82
71195;BME280;58908;51.426;7.714;2023-09-08T09:08:09;99744.06;;;27.84;62.00
71195;BME280;58908;51.426;7.714;2023-09-08T09:10:36;99749.72;;;28.17;63.95
71195;BME280;58908;51.426;7.714;2023-09-08T09:13:02;99739.41;;;28.33;61.93
71195;BME280;58908;51.426;7.714;2023-09-08T09:15:29;99769.94;;;30.07;66.58
71195;BME280;58908;51.426;7.714;2023-09-08T09:18:04;99688.31;;;29.29;56.57
71195;BME280;58908;51.426;7.714;2023-09-08T09:20:31;99720.47;;;30.36;59.67
71195;BME280;58908;51.426;7.714;2023-09-08T09:22:58;99723.66;;;29.42;59.55
71195;BME280;58908;51.426;7.714;2023-09-08T09:25:26;99706.28;;;30.27;57.46
71195;BME280;58908;51.426;7.714;2023-09-08T09:27:54;99714.47;;;29.89;57.78
71195;BME280;58908;51.426;7.714;2023-09-08T09:30:22;99697.31;;;29.88;56.16
71195;BME280;58908;51.426;7.714;2023-09-08T09:32:48;99706.22;;;31.28;56.80
71195;BME280;58908;51.426;7.714;2023-09-08T09:35:16;99692.03;;;30.76;54.49
71195;BME280;58908;51.426;7.714;2023-09-08T09:37:43;99671.91;;;30.77;52.13
71195;BME280;58908;51.426;7.714;2023-09-08T09:40:10;99676.13;;;30.73;52.40
71195;BME280;58908;51.426;7.714;2023-09-08T09:42:38;99688.75;;;31.36;54.37
71195;BME280;58908;51.426;7.714;2023-09-08T09:45:06;99686.03;;;29.26;53.84
71195;BME280;58908;51.426;7.714;2023-09-08T09:47:33;99672.53;;;30.79;51.80
71195;BME280;58908;51.426;7.714;2023-09-08T09:50:00;99676.16;;;30.10;52.04
71195;BME280;58908;51.426;7.714;2023-09-08T09:52:29;99699.56;;;28.94;53.92
71195;BME280;58908;51.426;7.714;2023-09-08T09:54:58;99715.13;;;29.78;56.73
71195;BME280;58908;51.426;7.714;2023-09-08T09:57:24;99696.34;;;30.46;54.26
71195;BME280;58908;51.426;7.714;2023-09-08T09:59:52;99695.56;;;31.20;53.92
71195;BME280;58908;51.426;7.714;2023-09-08T10:02:21;99660.22;;;30.20;50.32
71195;BME280;58908;51.426;7.714;2023-09-08T10:04:48;99683.94;;;29.41;53.60
71195;BME280;58908;51.426;7.714;2023-09-08T10:07:15;99694.78;;;29.09;54.32
71195;BME280;58908;51.426;7.714;2023-09-08T10:09:42;99718.63;;;29.13;58.32
71195;BME280;58908;51.426;7.714;2023-09-08T10:12:09;99707.16;;;29.37;56.21
71195;BME280;58908;51.426;7.714;2023-09-08T10:14:40;99720.03;;;28.96;57.37
71195;BME280;58908;51.426;7.714;2023-09-08T10:17:11;99710.25;;;27.80;56.33
71195;BME280;58908;51.426;7.714;2023-09-08T10:19:38;99709.81;;;28.11;56.49
71195;BME280;58908;51.426;7.714;2023-09-08T10:22:06;99729.00;;;28.43;58.84
71195;BME280;58908;51.426;7.714;2023-09-08T10:24:37;99717.91;;;28.38;57.02
71195;BME280;58908;51.426;7.714;2023-09-08T10:27:07;99718.84;;;28.18;57.32
71195;BME280;58908;51.426;7.714;2023-09-08T10:29:34;99734.13;;;28.66;59.19
71195;BME280;58908;51.426;7.714;2023-09-08T10:32:03;99714.47;;;28.23;56.75
71195;BME280;58908;51.426;7.714;2023-09-08T10:34:32;99733.97;;;28.33;58.81
71195;BME280;58908;51.426;7.714;2023-09-08T10:37:00;99717.47;;;28.35;57.65
71195;BME280;58908;51.426;7.714;2023-09-08T10:39:28;99724.31;;;28.71;58.74
71195;BME280;58908;51.426;7.714;2023-09-08T10:44:38;99709.78;;;28.38;55.67
71195;BME280;58908;51.426;7.714;2023-09-08T10:47:04;99719.66;;;28.59;57.04
71195;BME280;58908;51.426;7.714;2023-09-08T10:49:32;99759.66;;;28.84;61.64
71195;BME280;58908;51.426;7.714;2023-09-08T10:52:05;99706.41;;;28.83;55.94
71195;BME280;58908;51.426;7.714;2023-09-08T10:54:41;99684.06;;;28.88;53.42
71195;BME280;58908;51.426;7.714;2023-09-08T10:57:10;99704.00;;;29.21;55.48
71195;BME280;58908;51.426;7.714;2023-09-08T10:59:38;99674.53;;;29.31;52.38
71195;BME280;58908;51.426;7.714;2023-09-08T11:02:05;99676.66;;;29.48;52.69
71195;BME280;58908;51.426;7.714;2023-09-08T11:04:33;99691.69;;;29.44;54.38
71195;BME280;58908;51.426;7.714;2023-09-08T11:07:00;99679.97;;;29.37;52.75
71195;BME280;58908;51.426;7.714;2023-09-08T11:09:27;99676.81;;;29.47;52.83
71195;BME280;58908;51.426;7.714;2023-09-08T11:11:54;99663.84;;;29.36;51.44
71195;BME280;58908;51.426;7.714;2023-09-08T11:14:22;99671.81;;;29.18;51.48
71195;BME280;58908;51.426;7.714;2023-09-08T11:16:51;99677.41;;;28.97;53.13
71195;BME280;58908;51.426;7.714;2023-09-08T11:19:18;99687.44;;;29.03;53.32
71195;BME280;58908;51.426;7.714;2023-09-08T11:21:46;99667.38;;;29.10;51.30
71195;BME280;58908;51.426;7.714;2023-09-08T11:24:15;99671.13;;;28.96;51.58
71195;BME280;58908;51.426;7.714;2023-09-08T11:26:43;99670.94;;;29.04;52.31
71195;BME280;58908;51.426;7.714;2023-09-08T11:29:15;99670.75;;;29.12;52.22
71195;BME280;58908;51.426;7.714;2023-09-08T11:31:41;99666.56;;;28.97;51.58
71195;BME280;58908;51.426;7.714;2023-09-08T11:34:11;99675.53;;;28.97;53.29
71195;BME280;58908;51.426;7.714;2023-09-08T11:36:39;99662.78;;;28.91;50.93
71195;BME280;58908;51.426;7.714;2023-09-08T11:39:07;99680.34;;;29.02;53.47
71195;BME280;58908;51.426;7.714;2023-09-08T11:41:35;99666.75;;;28.95;52.07
71195;BME280;58908;51.426;7.714;2023-09-08T11:44:01;99659.66;;;29.20;51.08
71195;BME280;58908;51.426;7.714;2023-09-08T11:46:28;99657.78;;;29.01;50.60
71195;BME280;58908;51.426;7.714;2023-09-08T11:48:55;99660.50;;;28.95;51.44
71195;BME280;58908;51.426;7.714;2023-09-08T11:51:22;99663.59;;;28.92;52.25
71195;BME280;58908;51.426;7.714;2023-09-08T11:53:49;99648.78;;;29.14;50.65
71195;BME280;58908;51.426;7.714;2023-09-08T11:56:17;99648.97;;;28.99;50.64
71195;BME280;58908;51.426;7.714;2023-09-08T11:58:44;99643.59;;;29.19;50.31
71195;BME280;58908;51.426;7.714;2023-09-08T12:01:10;99653.41;;;29.07;51.28
71195;BME280;58908;51.426;7.714;2023-09-08T12:03:50;99648.16;;;29.18;51.55
71195;BME280;58908;51.426;7.714;2023-09-08T12:06:17;99618.06;;;29.33;48.54
71195;BME280;58908;51.426;7.714;2023-09-08T12:08:43;99647.13;;;29.13;50.51
71195;BME280;58908;51.426;7.714;2023-09-08T12:11:10;99651.13;;;29.30;51.15
71195;BME280;58908;51.426;7.714;2023-09-08T12:13:38;99637.09;;;29.33;50.49
71195;BME280;58908;51.426;7.714;2023-09-08T12:16:18;99629.56;;;29.09;49.33
71195;BME280;58908;51.426;7.714;2023-09-08T12:18:45;99627.69;;;29.09;49.43
71195;BME280;58908;51.426;7.714;2023-09-08T12:21:13;99627.28;;;29.19;48.08
71195;BME280;58908;51.426;7.714;2023-09-08T12:23:46;99618.25;;;29.31;48.44
71195;BME280;58908;51.426;7.714;2023-09-08T12:26:13;99627.25;;;29.38;49.33
71195;BME280;58908;51.426;7.714;2023-09-08T12:28:42;99631.44;;;29.21;50.14
71195;BME280;58908;51.426;7.714;2023-09-08T12:31:09;99634.81;;;29.36;50.72
71195;BME280;58908;51.426;7.714;2023-09-08T12:33:36;99638.16;;;29.32;51.44
71195;BME280;58908;51.426;7.714;2023-09-08T12:36:09;99633.56;;;29.39;51.26
71195;BME280;58908;51.426;7.714;2023-09-08T12:38:36;99621.84;;;29.19;50.30
71195;BME280;58908;51.426;7.714;2023-09-08T12:41:03;99599.66;;;29.35;48.50
71195;BME280;58908;51.426;7.714;2023-09-08T12:43:29;99597.16;;;29.27;47.91
71195;BME280;58908;51.426;7.714;2023-09-08T12:45:57;99618.06;;;29.20;49.75
71195;BME280;58908;51.426;7.714;2023-09-08T12:48:23;99596.13;;;29.41;48.00
71195;BME280;58908;51.426;7.714;2023-09-08T12:50:50;99618.91;;;29.33;49.86
71195;BME280;58908;51.426;7.714;2023-09-08T12:53:16;99615.38;;;29.07;49.57
71195;BME280;58908;51.426;7.714;2023-09-08T12:55:43;99584.19;;;29.16;46.29
71195;BME280;58908;51.426;7.714;2023-09-08T12:58:09;99594.44;;;29.27;46.68